createdAt,value
2014-07-01T07:26:30.657Z,99536
2014-07-01T07:26:47.860Z,99536
2014-07-01T07:27:05.360Z,99539
2014-07-01T07:27:21.422Z,99551
2014-07-01T07:27:37.596Z,99539
2014-07-01T07:27:54.409Z,99542
2014-07-01T07:28:10.456Z,99525
2014-07-01T07:28:26.596Z,99536
2014-07-01T07:28:42.754Z,99534
2014-07-01T07:28:58.926Z,99539
2014-07-01T07:29:15.645Z,99534
2014-07-01T07:29:33.036Z,99531
2014-07-01T07:29:49.742Z,99539
2014-07-01T07:30:06.429Z,99539
2014-07-01T07:30:23.757Z,99539
2014-07-01T07:30:40.523Z,99536
2014-07-01T07:30:56.634Z,99534
2014-07-01T07:31:12.759Z,99542
2014-07-01T07:31:28.916Z,99536
2014-07-01T07:31:45.667Z,99539
2014-07-01T07:32:02.307Z,99534
2014-07-01T07:32:18.417Z,99534
2014-07-01T07:32:34.526Z,99542
2014-07-01T07:32:51.262Z,99545
2014-07-01T07:33:07.325Z,99545
2014-07-01T07:33:23.403Z,99539
2014-07-01T07:33:39.512Z,99542
2014-07-01T07:33:56.859Z,99539
2014-07-01T07:34:13.640Z,99531
2014-07-01T07:34:29.734Z,99542
2014-07-01T07:34:46.500Z,99542
2014-07-01T07:35:02.486Z,99542
2014-07-01T07:35:19.189Z,99539
2014-07-01T07:35:36.502Z,99534
2014-07-01T07:35:53.267Z,99550
2014-07-01T07:36:09.441Z,99545
2014-07-01T07:36:26.207Z,99531
2014-07-01T07:36:42.254Z,99550
2014-07-01T07:36:58.988Z,99561
2014-07-01T07:37:16.834Z,99548
2014-07-01T07:37:32.959Z,99548
2014-07-01T07:37:50.818Z,99548
2014-07-01T07:38:09.334Z,99548
2014-07-01T07:38:26.539Z,99542
2014-07-01T07:38:44.477Z,99545
2014-07-01T07:39:03.117Z,99548
2014-07-01T07:39:19.695Z,99545
2014-07-01T07:39:37.604Z,99553
2014-07-01T07:39:55.541Z,99536
2014-07-01T07:40:13.525Z,99548
2014-07-01T07:40:30.856Z,99548
2014-07-01T07:40:48.246Z,99548
2014-07-01T07:41:06.293Z,99548
2014-07-01T07:41:24.356Z,99553
2014-07-01T07:41:41.765Z,99548
2014-07-01T07:41:59.093Z,99539
2014-07-01T07:42:16.405Z,99548
2014-07-01T07:42:34.953Z,99548
2014-07-01T07:42:52.266Z,99553
2014-07-01T07:43:10.281Z,99548
2014-07-01T07:43:27.016Z,99548
2014-07-01T07:43:43.643Z,99542
2014-07-01T07:44:01.127Z,99545
2014-07-01T07:44:18.315Z,99548
2014-07-01T07:44:35.221Z,99548
2014-07-01T07:44:52.473Z,99536
2014-07-01T07:45:09.239Z,99545
2014-07-01T07:45:25.160Z,99548
2014-07-01T07:45:41.410Z,99542
2014-07-01T07:45:57.538Z,99548
2014-07-01T07:46:13.663Z,99548
2014-07-01T07:46:29.788Z,99539
2014-07-01T07:46:45.898Z,99542
2014-07-01T07:47:02.024Z,99539
2014-07-01T07:47:18.164Z,99545
2014-07-01T07:47:34.274Z,99553
2014-07-01T07:47:50.446Z,99542
2014-07-01T07:48:06.636Z,99545
2014-07-01T07:48:22.839Z,99542
2014-07-01T07:48:38.964Z,99539
2014-07-01T07:48:55.777Z,99539
2014-07-01T07:49:11.904Z,99542
2014-07-01T07:49:27.919Z,99539
2014-07-01T07:49:43.841Z,99539
2014-07-01T07:50:00.623Z,99550
2014-07-01T07:50:16.718Z,99542
2014-07-01T07:50:33.515Z,99545
2014-07-01T07:50:50.203Z,99545
2014-07-01T07:51:06.328Z,99545
2014-07-01T07:51:22.439Z,99539
2014-07-01T07:51:38.548Z,99548
2014-07-01T07:51:55.892Z,99539
2014-07-01T07:52:13.205Z,99545
2014-07-01T07:52:29.191Z,99542
2014-07-01T07:52:45.972Z,99548
2014-07-01T07:53:02.082Z,99545
2014-07-01T07:53:18.175Z,99534
2014-07-01T07:53:34.787Z,99545
2014-07-01T07:53:50.974Z,99542
2014-07-01T07:54:07.677Z,99545
2014-07-01T07:54:23.867Z,99536
2014-07-01T07:54:40.539Z,99545
2014-07-01T07:54:57.992Z,99536
2014-07-01T07:55:14.070Z,99550
2014-07-01T07:55:30.791Z,99545
2014-07-01T07:55:46.963Z,99556
2014-07-01T07:56:03.025Z,99542
2014-07-01T07:56:18.947Z,99545
2014-07-01T07:56:35.293Z,99539
2014-07-01T07:56:51.324Z,99545
2014-07-01T07:57:07.418Z,99548
2014-07-01T07:57:23.512Z,99553
2014-07-01T07:57:40.232Z,99550
2014-07-01T07:57:56.420Z,99550
2014-07-01T07:58:12.435Z,99550
2014-07-01T07:58:28.467Z,99548
2014-07-01T07:58:44.656Z,99545
2014-07-01T07:59:01.344Z,99539
2014-07-01T07:59:17.406Z,99550
2014-07-01T07:59:33.500Z,99548
2014-07-01T07:59:49.596Z,99548
2014-07-01T08:00:06.971Z,99545
2014-07-01T08:00:23.111Z,99545
2014-07-01T08:00:39.830Z,99548
2014-07-01T08:00:56.613Z,99548
2014-07-01T08:01:12.691Z,99542
2014-07-01T08:01:28.770Z,99536
2014-07-01T08:01:44.832Z,99542
2014-07-01T08:02:01.037Z,99548
2014-07-01T08:02:17.803Z,99542
2014-07-01T08:02:34.568Z,99545
2014-07-01T08:02:50.678Z,99548
2014-07-01T08:03:07.462Z,99542
2014-07-01T08:03:24.228Z,99539
2014-07-01T08:03:41.634Z,99550
2014-07-01T08:03:57.728Z,99553
2014-07-01T08:04:13.745Z,99545
2014-07-01T08:04:31.167Z,99545
2014-07-01T08:04:47.245Z,99542
2014-07-01T08:05:03.386Z,99542
2014-07-01T08:05:20.622Z,99545
2014-07-01T08:05:36.763Z,99545
2014-07-01T08:05:54.857Z,99548
2014-07-01T08:06:11.531Z,99548
2014-07-01T08:06:27.749Z,99536
2014-07-01T08:06:43.687Z,99545
2014-07-01T08:07:00.452Z,99548
2014-07-01T08:07:17.204Z,99553
2014-07-01T08:07:33.345Z,99550
2014-07-01T08:07:49.501Z,99556
2014-07-01T08:08:06.876Z,99548
2014-07-01T08:08:22.972Z,99542
2014-07-01T08:08:39.706Z,99545
2014-07-01T08:08:55.785Z,99553
2014-07-01T08:09:11.942Z,99550
2014-07-01T08:09:28.036Z,99548
2014-07-01T08:09:44.004Z,99553
2014-07-01T08:10:00.129Z,99539
2014-07-01T08:10:16.881Z,99539
2014-07-01T08:10:33.553Z,99550
2014-07-01T08:10:49.756Z,99545
2014-07-01T08:11:05.834Z,99550
2014-07-01T08:11:21.946Z,99550
2014-07-01T08:11:38.040Z,99556
2014-07-01T08:11:54.008Z,99539
2014-07-01T08:12:10.102Z,99556
2014-07-01T08:12:26.229Z,99561
2014-07-01T08:12:42.338Z,99545
2014-07-01T08:12:58.401Z,99545
2014-07-01T08:13:15.294Z,99548
2014-07-01T08:13:32.559Z,99542
2014-07-01T08:13:48.622Z,99539
2014-07-01T08:14:05.450Z,99550
2014-07-01T08:14:22.749Z,99550
2014-07-01T08:14:38.827Z,99550
2014-07-01T08:14:54.905Z,99556
2014-07-01T08:15:10.921Z,99556
2014-07-01T08:15:27.110Z,99545
2014-07-01T08:15:43.235Z,99542
2014-07-01T08:15:59.344Z,99542
2014-07-01T08:16:15.486Z,99556
2014-07-01T08:16:32.080Z,99539
2014-07-01T08:16:48.720Z,99556
2014-07-01T08:17:04.642Z,99542
2014-07-01T08:17:20.786Z,99548
2014-07-01T08:17:37.005Z,99548
2014-07-01T08:17:53.145Z,99550
2014-07-01T08:18:09.317Z,99550
2014-07-01T08:18:25.568Z,99550
2014-07-01T08:18:42.412Z,99548
2014-07-01T08:18:58.584Z,99556
2014-07-01T08:19:14.568Z,99556
2014-07-01T08:19:30.743Z,99550
2014-07-01T08:19:46.977Z,99545
2014-07-01T08:20:04.399Z,99548
2014-07-01T08:20:21.714Z,99539
2014-07-01T08:20:37.808Z,99542
2014-07-01T08:20:53.901Z,99528
2014-07-01T08:21:10.058Z,99545
2014-07-01T08:21:26.778Z,99545
2014-07-01T08:21:43.544Z,99539
2014-07-01T08:21:59.638Z,99545
2014-07-01T08:22:15.778Z,99550
2014-07-01T08:22:31.812Z,99550
2014-07-01T08:22:48.624Z,99539
2014-07-01T08:23:04.718Z,99548
2014-07-01T08:23:20.829Z,99545
2014-07-01T08:23:37.548Z,99553
2014-07-01T08:23:54.267Z,99553
2014-07-01T08:24:10.923Z,99550
2014-07-01T08:24:27.675Z,99545
2014-07-01T08:24:43.753Z,99548
2014-07-01T08:25:12.659Z,99548
2014-07-01T08:25:29.942Z,99550
2014-07-01T08:25:47.192Z,99542
2014-07-01T08:26:05.067Z,99539
2014-07-01T08:26:21.865Z,99545
2014-07-01T08:26:37.928Z,99542
2014-07-01T08:26:54.772Z,99539
2014-07-01T08:27:11.506Z,99550
2014-07-01T08:27:27.711Z,99536
2014-07-01T08:27:43.602Z,99553
2014-07-01T08:27:59.836Z,99545
2014-07-01T08:28:15.946Z,99539
2014-07-01T08:28:32.041Z,99539
2014-07-01T08:28:48.729Z,99542
2014-07-01T08:29:05.479Z,99550
2014-07-01T08:29:22.887Z,99539
2014-07-01T08:29:38.996Z,99536
2014-07-01T08:29:55.090Z,99545
2014-07-01T08:30:11.231Z,99545
2014-07-01T08:30:27.311Z,99545
2014-07-01T08:30:43.452Z,99553
2014-07-01T08:30:59.545Z,99545
2014-07-01T08:31:15.686Z,99556
2014-07-01T08:31:31.782Z,99533
2014-07-01T08:31:47.891Z,99539
2014-07-01T08:32:03.954Z,99536
2014-07-01T08:32:20.190Z,99539
2014-07-01T08:32:36.284Z,99531
2014-07-01T08:32:53.112Z,99545
2014-07-01T08:33:09.206Z,99539
2014-07-01T08:33:25.317Z,99539
2014-07-01T08:33:42.067Z,99548
2014-07-01T08:33:58.895Z,99539
2014-07-01T08:34:15.645Z,99539
2014-07-01T08:34:31.755Z,99533
2014-07-01T08:34:47.896Z,99548
2014-07-01T08:35:04.005Z,99536
2014-07-01T08:35:20.117Z,99533
2014-07-01T08:35:36.148Z,99539
2014-07-01T08:35:52.882Z,99533
2014-07-01T08:36:09.445Z,99525
2014-07-01T08:36:26.228Z,99539
2014-07-01T08:36:44.088Z,99545
2014-07-01T08:37:01.447Z,99528
2014-07-01T08:37:18.650Z,99545
2014-07-01T08:37:34.730Z,99542
2014-07-01T08:37:50.668Z,99542
2014-07-01T08:38:07.355Z,99533
2014-07-01T08:38:24.060Z,99547
2014-07-01T08:38:40.310Z,99542
2014-07-01T08:38:56.326Z,99542
2014-07-01T08:39:13.107Z,99542
2014-07-01T08:39:29.141Z,99539
2014-07-01T08:39:45.188Z,99539
2014-07-01T08:40:01.360Z,99533
2014-07-01T08:40:17.454Z,99536
2014-07-01T08:40:34.267Z,99536
2014-07-01T08:40:50.377Z,99542
2014-07-01T08:41:06.502Z,99536
2014-07-01T08:41:23.363Z,99539
2014-07-01T08:41:39.379Z,99545
2014-07-01T08:41:55.566Z,99542
2014-07-01T08:42:11.738Z,99536
2014-07-01T08:42:27.912Z,99550
2014-07-01T08:42:44.006Z,99545
2014-07-01T08:43:00.115Z,99542
2014-07-01T08:43:16.881Z,99539
2014-07-01T08:43:32.819Z,99539
2014-07-01T08:43:49.601Z,99542
2014-07-01T08:44:05.679Z,99542
2014-07-01T08:44:21.807Z,99542
2014-07-01T08:44:37.916Z,99545
2014-07-01T08:44:54.682Z,99550
2014-07-01T08:45:11.463Z,99550
2014-07-01T08:45:27.559Z,99545
2014-07-01T08:45:44.121Z,99553
2014-07-01T08:46:00.340Z,99542
2014-07-01T08:46:17.043Z,99547
2014-07-01T08:46:33.873Z,99536
2014-07-01T08:46:49.983Z,99542
2014-07-01T08:47:06.139Z,99533
2014-07-01T08:47:22.234Z,99547
2014-07-01T08:47:38.905Z,99545
2014-07-01T08:47:54.999Z,99550
2014-07-01T08:48:11.109Z,99548
2014-07-01T08:48:27.315Z,99533
2014-07-01T08:48:43.455Z,99545
2014-07-01T08:48:59.518Z,99545
2014-07-01T08:49:15.721Z,99550
2014-07-01T08:49:32.456Z,99548
2014-07-01T08:49:48.597Z,99545
2014-07-01T08:50:04.581Z,99533
2014-07-01T08:50:20.691Z,99545
2014-07-01T08:50:37.522Z,99545
2014-07-01T08:50:53.600Z,99550
2014-07-01T08:51:09.725Z,99545
2014-07-01T08:51:25.664Z,99539
2014-07-01T08:51:41.727Z,99542
2014-07-01T08:51:57.805Z,99542
2014-07-01T08:52:13.899Z,99533
2014-07-01T08:52:29.994Z,99548
2014-07-01T08:52:46.150Z,99539
2014-07-01T08:53:02.275Z,99539
2014-07-01T08:53:18.384Z,99539
2014-07-01T08:53:34.497Z,99533
2014-07-01T08:53:51.231Z,99542
2014-07-01T08:54:07.325Z,99548
2014-07-01T08:54:23.512Z,99550
2014-07-01T08:54:39.513Z,99545
2014-07-01T08:54:56.294Z,99542
2014-07-01T08:55:12.482Z,99539
2014-07-01T08:55:28.623Z,99533
2014-07-01T08:55:45.843Z,99545
2014-07-01T08:56:02.562Z,99539
2014-07-01T08:56:19.296Z,99536
2014-07-01T08:56:37.283Z,99545
2014-07-01T08:56:55.298Z,99545
2014-07-01T08:57:12.736Z,99533
2014-07-01T08:57:28.892Z,99542
2014-07-01T08:57:44.973Z,99533
2014-07-01T08:58:01.083Z,99542
2014-07-01T08:58:17.255Z,99539
2014-07-01T08:58:33.895Z,99539
2014-07-01T08:58:51.240Z,99539
2014-07-01T08:59:07.427Z,99545
2014-07-01T08:59:23.506Z,99550
2014-07-01T08:59:39.648Z,99547
2014-07-01T08:59:55.898Z,99539
2014-07-01T09:00:12.070Z,99539
2014-07-01T09:00:28.164Z,99556
2014-07-01T09:00:44.338Z,99536
2014-07-01T09:01:00.541Z,99542
2014-07-01T09:01:16.603Z,99545
2014-07-01T09:01:32.603Z,99547
2014-07-01T09:01:49.324Z,99547
2014-07-01T09:02:05.433Z,99545
2014-07-01T09:02:21.527Z,99539
2014-07-01T09:02:38.855Z,99539
2014-07-01T09:02:55.092Z,99542
2014-07-01T09:03:11.217Z,99545
2014-07-01T09:03:27.310Z,99542
2014-07-01T09:03:43.264Z,99539
2014-07-01T09:04:00.126Z,99539
2014-07-01T09:04:16.204Z,99547
2014-07-01T09:04:32.282Z,99547
2014-07-01T09:04:48.892Z,99533
2014-07-01T09:05:04.986Z,99545
2014-07-01T09:05:21.143Z,99547
2014-07-01T09:05:37.283Z,99545
2014-07-01T09:05:54.658Z,99539
2014-07-01T09:06:11.427Z,99542
2014-07-01T09:06:28.239Z,99545
2014-07-01T09:06:45.614Z,99533
2014-07-01T09:07:01.833Z,99547
2014-07-01T09:07:18.600Z,99533
2014-07-01T09:07:35.209Z,99547
2014-07-01T09:07:51.897Z,99536
2014-07-01T09:08:08.009Z,99539
2014-07-01T09:08:24.150Z,99539
2014-07-01T09:08:40.228Z,99536
2014-07-01T09:08:56.337Z,99539
2014-07-01T09:09:12.417Z,99539
2014-07-01T09:09:28.558Z,99542
2014-07-01T09:09:45.277Z,99536
2014-07-01T09:10:01.855Z,99536
2014-07-01T09:10:19.153Z,99545
2014-07-01T09:10:35.293Z,99542
2014-07-01T09:10:51.887Z,99536
2014-07-01T09:11:08.655Z,99539
2014-07-01T09:11:25.389Z,99539
2014-07-01T09:11:41.467Z,99539
2014-07-01T09:11:57.576Z,99530
2014-07-01T09:12:13.672Z,99542
2014-07-01T09:12:29.891Z,99528
2014-07-01T09:12:46.594Z,99536
2014-07-01T09:13:02.672Z,99536
2014-07-01T09:13:18.862Z,99533
2014-07-01T09:13:35.580Z,99528
2014-07-01T09:13:51.612Z,99533
2014-07-01T09:14:07.784Z,99536
2014-07-01T09:14:24.504Z,99533
2014-07-01T09:14:40.614Z,99539
2014-07-01T09:14:57.473Z,99533
2014-07-01T09:15:13.600Z,99536
2014-07-01T09:15:29.694Z,99536
2014-07-01T09:15:45.834Z,99539
2014-07-01T09:16:02.522Z,99539
2014-07-01T09:16:19.227Z,99533
2014-07-01T09:16:35.165Z,99530
2014-07-01T09:16:51.868Z,99533
2014-07-01T09:17:08.571Z,99530
2014-07-01T09:17:24.713Z,99530
2014-07-01T09:17:41.448Z,99533
2014-07-01T09:17:58.838Z,99533
2014-07-01T09:18:15.012Z,99525
2014-07-01T09:18:31.106Z,99533
2014-07-01T09:18:47.215Z,99522
2014-07-01T09:19:03.372Z,99533
2014-07-01T09:19:20.138Z,99536
2014-07-01T09:19:36.263Z,99530
2014-07-01T09:19:53.029Z,99530
2014-07-01T09:20:09.779Z,99536
2014-07-01T09:20:25.860Z,99530
2014-07-01T09:20:41.938Z,99522
2014-07-01T09:20:58.016Z,99530
2014-07-01T09:21:14.830Z,99528
2014-07-01T09:21:30.986Z,99528
2014-07-01T09:21:47.674Z,99528
2014-07-01T09:22:03.861Z,99528
2014-07-01T09:22:20.019Z,99533
2014-07-01T09:22:36.222Z,99533
2014-07-01T09:22:52.769Z,99522
2014-07-01T09:23:08.738Z,99519
2014-07-01T09:23:25.350Z,99528
2014-07-01T09:23:41.507Z,99533
2014-07-01T09:23:57.710Z,99533
2014-07-01T09:24:13.789Z,99528
2014-07-01T09:24:29.976Z,99528
2014-07-01T09:24:46.055Z,99530
2014-07-01T09:25:02.117Z,99533
2014-07-01T09:25:18.307Z,99522
2014-07-01T09:25:35.057Z,99528
2014-07-01T09:25:51.682Z,99519
2014-07-01T09:26:07.603Z,99528
2014-07-01T09:26:23.778Z,99522
2014-07-01T09:26:39.856Z,99530
2014-07-01T09:26:55.997Z,99519
2014-07-01T09:27:12.122Z,99525
2014-07-01T09:27:28.296Z,99522
2014-07-01T09:27:44.421Z,99525
2014-07-01T09:28:00.483Z,99522
2014-07-01T09:28:16.609Z,99525
2014-07-01T09:28:32.719Z,99525
2014-07-01T09:28:48.844Z,99525
2014-07-01T09:29:04.984Z,99530
2014-07-01T09:29:21.065Z,99519
2014-07-01T09:29:37.830Z,99542
2014-07-01T09:29:53.940Z,99522
2014-07-01T09:30:10.096Z,99530
2014-07-01T09:30:27.457Z,99528
2014-07-01T09:30:43.582Z,99516
2014-07-01T09:30:59.582Z,99522
2014-07-01T09:31:15.723Z,99519
2014-07-01T09:31:31.787Z,99525
2014-07-01T09:31:48.537Z,99533
2014-07-01T09:32:05.350Z,99530
2014-07-01T09:32:21.430Z,99536
2014-07-01T09:32:38.180Z,99536
2014-07-01T09:32:54.274Z,99533
2014-07-01T09:33:10.992Z,99536
2014-07-01T09:33:27.291Z,99531
2014-07-01T09:33:43.979Z,99528
2014-07-01T09:34:00.088Z,99536
2014-07-01T09:34:16.213Z,99533
2014-07-01T09:34:33.011Z,99525
2014-07-01T09:34:49.183Z,99536
2014-07-01T09:35:05.917Z,99525
2014-07-01T09:35:22.044Z,99528
2014-07-01T09:35:38.326Z,99539
2014-07-01T09:35:54.388Z,99528
2014-07-01T09:36:10.451Z,99531
2014-07-01T09:36:26.765Z,99528
2014-07-01T09:36:42.874Z,99519
2014-07-01T09:36:59.703Z,99528
2014-07-01T09:37:15.578Z,99522
2014-07-01T09:37:32.314Z,99508
2014-07-01T09:37:48.361Z,99525
2014-07-01T09:38:04.470Z,99522
2014-07-01T09:38:21.207Z,99531
2014-07-01T09:38:37.207Z,99525
2014-07-01T09:38:54.191Z,99528
2014-07-01T09:39:10.863Z,99528
2014-07-01T09:39:28.259Z,99528
2014-07-01T09:39:46.228Z,99531
2014-07-01T09:40:04.259Z,99536
2014-07-01T09:40:21.105Z,99525
2014-07-01T09:40:37.808Z,99528
2014-07-01T09:40:54.058Z,99528
2014-07-01T09:41:10.136Z,99531
2014-07-01T09:41:26.232Z,99522
2014-07-01T09:41:42.357Z,99528
2014-07-01T09:41:59.201Z,99536
2014-07-01T09:42:15.279Z,99525
2014-07-01T09:42:31.406Z,99525
2014-07-01T09:42:47.547Z,99525
2014-07-01T09:43:03.593Z,99525
2014-07-01T09:43:20.328Z,99525
2014-07-01T09:43:36.408Z,99516
2014-07-01T09:43:52.549Z,99525
2014-07-01T09:44:08.689Z,99519
2014-07-01T09:44:25.441Z,99531
2014-07-01T09:44:41.566Z,99514
2014-07-01T09:44:57.691Z,99519
2014-07-01T09:45:14.457Z,99525
2014-07-01T09:45:31.206Z,99525
2014-07-01T09:45:47.299Z,99519
2014-07-01T09:46:03.362Z,99514
2014-07-01T09:46:19.440Z,99519
2014-07-01T09:46:35.669Z,99522
2014-07-01T09:46:51.638Z,99514
2014-07-01T09:47:07.654Z,99528
2014-07-01T09:47:23.758Z,99528
2014-07-01T09:47:39.883Z,99528
2014-07-01T09:47:56.040Z,99522
2014-07-01T09:48:12.133Z,99514
2014-07-01T09:48:28.317Z,99516
2014-07-01T09:48:45.114Z,99522
2014-07-01T09:49:01.926Z,99519
2014-07-01T09:49:18.661Z,99516
2014-07-01T09:49:35.319Z,99514
2014-07-01T09:49:51.428Z,99519
2014-07-01T09:50:08.178Z,99505
2014-07-01T09:50:24.350Z,99514
2014-07-01T09:50:41.090Z,99522
2014-07-01T09:50:57.793Z,99516
2014-07-01T09:51:13.903Z,99511
2014-07-01T09:51:30.621Z,99519
2014-07-01T09:51:48.047Z,99516
2014-07-01T09:52:05.875Z,99519
2014-07-01T09:52:23.172Z,99513
2014-07-01T09:52:40.390Z,99508
2014-07-01T09:52:58.359Z,99511
2014-07-01T09:53:15.703Z,99525
2014-07-01T09:53:33.063Z,99516
2014-07-01T09:53:51.612Z,99513
2014-07-01T09:54:08.956Z,99513
2014-07-01T09:54:25.096Z,99519
2014-07-01T09:54:41.909Z,99516
2014-07-01T09:54:58.050Z,99519
2014-07-01T09:55:14.768Z,99516
2014-07-01T09:55:30.862Z,99513
2014-07-01T09:55:47.612Z,99514
2014-07-01T09:56:03.698Z,99514
2014-07-01T09:56:19.870Z,99528
2014-07-01T09:56:36.011Z,99519
2014-07-01T09:56:53.448Z,99525
2014-07-01T09:57:10.222Z,99516
2014-07-01T09:57:26.269Z,99530
2014-07-01T09:57:42.378Z,99516
2014-07-01T09:57:58.503Z,99519
2014-07-01T09:58:14.605Z,99525
2014-07-01T09:58:30.589Z,99522
2014-07-01T09:58:46.824Z,99522
2014-07-01T09:59:02.996Z,99528
2014-07-01T09:59:19.066Z,99516
2014-07-01T09:59:35.129Z,99519
2014-07-01T09:59:51.363Z,99525
2014-07-01T10:00:08.175Z,99525
2014-07-01T10:00:24.227Z,99528
2014-07-01T10:00:40.321Z,99522
2014-07-01T10:00:57.071Z,99519
2014-07-01T10:01:13.290Z,99519
2014-07-01T10:01:30.154Z,99516
2014-07-01T10:01:46.826Z,99525
2014-07-01T10:02:02.967Z,99525
2014-07-01T10:02:20.310Z,99519
2014-07-01T10:02:36.533Z,99516
2014-07-01T10:02:52.689Z,99525
2014-07-01T10:03:08.830Z,99519
2014-07-01T10:03:24.783Z,99525
2014-07-01T10:03:40.975Z,99516
2014-07-01T10:03:57.115Z,99519
2014-07-01T10:04:13.256Z,99530
2014-07-01T10:04:29.365Z,99528
2014-07-01T10:04:45.385Z,99513
2014-07-01T10:05:02.072Z,99525
2014-07-01T10:05:18.151Z,99530
2014-07-01T10:05:34.260Z,99516
2014-07-01T10:05:50.372Z,99519
2014-07-01T10:06:06.497Z,99516
2014-07-01T10:06:22.607Z,99519
2014-07-01T10:06:39.388Z,99513
2014-07-01T10:06:56.202Z,99519
2014-07-01T10:07:12.921Z,99525
2014-07-01T10:07:29.015Z,99522
2014-07-01T10:07:45.296Z,99530
2014-07-01T10:08:01.377Z,99514
2014-07-01T10:08:17.565Z,99516
2014-07-01T10:08:34.924Z,99519
2014-07-01T10:08:50.940Z,99522
2014-07-01T10:09:07.115Z,99522
2014-07-01T10:09:23.162Z,99522
2014-07-01T10:09:40.021Z,99516
2014-07-01T10:09:55.943Z,99530
2014-07-01T10:10:12.710Z,99516
2014-07-01T10:10:29.445Z,99519
2014-07-01T10:10:47.429Z,99525
2014-07-01T10:11:03.710Z,99525
2014-07-01T10:11:19.869Z,99522
2014-07-01T10:11:36.666Z,99530
2014-07-01T10:11:52.666Z,99516
2014-07-01T10:12:09.916Z,99519
2014-07-01T10:12:25.919Z,99516
2014-07-01T10:12:43.856Z,99516
2014-07-01T10:12:59.856Z,99513
2014-07-01T10:13:16.622Z,99513
2014-07-01T10:13:33.937Z,99508
2014-07-01T10:13:50.109Z,99516
2014-07-01T10:14:06.765Z,99525
2014-07-01T10:14:23.937Z,99513
2014-07-01T10:14:41.142Z,99519
2014-07-01T10:14:57.861Z,99522
2014-07-01T10:15:14.549Z,99528
2014-07-01T10:15:31.877Z,99528
2014-07-01T10:15:48.582Z,99530
2014-07-01T10:16:06.644Z,99522
2014-07-01T10:16:24.019Z,99530
2014-07-01T10:16:40.691Z,99522
2014-07-01T10:16:58.475Z,99536
2014-07-01T10:17:15.241Z,99530
2014-07-01T10:17:33.288Z,99536
2014-07-01T10:17:51.804Z,99525
2014-07-01T10:18:08.555Z,99530
2014-07-01T10:18:27.086Z,99525
2014-07-01T10:18:44.945Z,99525
2014-07-01T10:19:03.479Z,99525
2014-07-01T10:19:22.058Z,99528
2014-07-01T10:19:39.308Z,99522
2014-07-01T10:19:55.933Z,99516
2014-07-01T10:20:12.777Z,99519
2014-07-01T10:20:28.871Z,99508
2014-07-01T10:20:44.996Z,99516
2014-07-01T10:21:01.184Z,99519
2014-07-01T10:21:17.248Z,99525
2014-07-01T10:21:33.420Z,99533
2014-07-01T10:21:50.092Z,99516
2014-07-01T10:22:06.154Z,99530
2014-07-01T10:22:22.314Z,99533
2014-07-01T10:22:39.110Z,99519
2014-07-01T10:22:55.939Z,99528
2014-07-01T10:23:11.970Z,99525
2014-07-01T10:23:28.081Z,99516
2014-07-01T10:23:44.862Z,99519
2014-07-01T10:24:01.628Z,99528
2014-07-01T10:24:17.753Z,99525
2014-07-01T10:24:33.849Z,99516
2014-07-01T10:24:50.661Z,99528
2014-07-01T10:25:06.739Z,99530
2014-07-01T10:25:22.786Z,99519
2014-07-01T10:25:38.866Z,99516
2014-07-01T10:25:55.023Z,99519
2014-07-01T10:26:11.116Z,99528
2014-07-01T10:26:28.445Z,99516
2014-07-01T10:26:44.494Z,99519
2014-07-01T10:27:01.838Z,99516
2014-07-01T10:27:17.823Z,99522
2014-07-01T10:27:34.385Z,99522
2014-07-01T10:27:51.731Z,99525
2014-07-01T10:28:08.481Z,99530
2014-07-01T10:28:25.231Z,99525
2014-07-01T10:28:41.340Z,99525
2014-07-01T10:28:57.998Z,99525
2014-07-01T10:29:14.123Z,99522
2014-07-01T10:29:30.311Z,99528
2014-07-01T10:29:46.436Z,99530
2014-07-01T10:30:02.578Z,99519
2014-07-01T10:30:18.828Z,99525
2014-07-01T10:30:34.828Z,99525
2014-07-01T10:30:51.390Z,99525
2014-07-01T10:31:08.127Z,99519
2014-07-01T10:31:24.737Z,99539
2014-07-01T10:31:40.815Z,99536
2014-07-01T10:31:56.940Z,99533
2014-07-01T10:32:13.066Z,99536
2014-07-01T10:32:29.191Z,99525
2014-07-01T10:32:45.300Z,99530
2014-07-01T10:33:01.488Z,99528
2014-07-01T10:33:18.256Z,99525
2014-07-01T10:33:34.366Z,99525
2014-07-01T10:33:51.710Z,99528
2014-07-01T10:34:08.460Z,99525
2014-07-01T10:34:24.601Z,99525
2014-07-01T10:34:40.867Z,99525
2014-07-01T10:34:57.695Z,99528
2014-07-01T10:35:14.445Z,99522
2014-07-01T10:35:30.556Z,99528
2014-07-01T10:35:47.728Z,99525
2014-07-01T10:36:04.478Z,99522
2014-07-01T10:36:20.544Z,99522
2014-07-01T10:36:37.294Z,99525
2014-07-01T10:36:53.528Z,99522
2014-07-01T10:37:09.575Z,99522
2014-07-01T10:37:25.717Z,99522
2014-07-01T10:37:42.451Z,99522
2014-07-01T10:37:58.576Z,99519
2014-07-01T10:38:14.748Z,99519
2014-07-01T10:38:31.422Z,99513
2014-07-01T10:38:47.547Z,99525
2014-07-01T10:39:04.344Z,99511
2014-07-01T10:39:20.406Z,99508
2014-07-01T10:39:37.159Z,99519
2014-07-01T10:39:53.237Z,99513
2014-07-01T10:40:09.347Z,99513
2014-07-01T10:40:26.050Z,99516
2014-07-01T10:40:42.817Z,99519
2014-07-01T10:40:59.411Z,99519
2014-07-01T10:41:16.130Z,99516
2014-07-01T10:41:32.161Z,99522
2014-07-01T10:41:48.319Z,99525
2014-07-01T10:42:06.366Z,99528
2014-07-01T10:42:22.444Z,99528
2014-07-01T10:42:38.491Z,99528
2014-07-01T10:42:55.260Z,99522
2014-07-01T10:43:11.229Z,99525
2014-07-01T10:43:29.088Z,99525
2014-07-01T10:43:47.166Z,99525
2014-07-01T10:44:04.605Z,99519
2014-07-01T10:44:21.839Z,99519
2014-07-01T10:44:39.214Z,99525
2014-07-01T10:44:57.026Z,99519
2014-07-01T10:45:13.608Z,99530
2014-07-01T10:45:30.311Z,99522
2014-07-01T10:45:47.061Z,99528
2014-07-01T10:46:04.905Z,99530
2014-07-01T10:46:21.671Z,99525
2014-07-01T10:46:38.405Z,99522
2014-07-01T10:46:55.734Z,99522
2014-07-01T10:47:14.220Z,99522
2014-07-01T10:47:32.881Z,99522
2014-07-01T10:47:50.084Z,99522
2014-07-01T10:48:06.178Z,99525
2014-07-01T10:48:24.774Z,99525
2014-07-01T10:48:41.446Z,99522
2014-07-01T10:48:58.805Z,99528
2014-07-01T10:49:16.167Z,99522
2014-07-01T10:49:33.574Z,99522
2014-07-01T10:49:51.589Z,99522
2014-07-01T10:50:08.902Z,99522
2014-07-01T10:50:26.715Z,99533
2014-07-01T10:50:43.981Z,99533
2014-07-01T10:51:02.106Z,99527
2014-07-01T10:51:19.281Z,99525
2014-07-01T10:51:36.031Z,99519
2014-07-01T10:51:52.281Z,99513
2014-07-01T10:52:08.343Z,99528
2014-07-01T10:52:25.110Z,99522
2014-07-01T10:52:41.141Z,99519
2014-07-01T10:52:57.266Z,99513
2014-07-01T10:53:13.360Z,99513
2014-07-01T10:53:30.190Z,99516
2014-07-01T10:53:46.331Z,99519
2014-07-01T10:54:02.502Z,99527
2014-07-01T10:54:18.706Z,99525
2014-07-01T10:54:34.849Z,99525
2014-07-01T10:54:50.896Z,99516
2014-07-01T10:55:07.084Z,99525
2014-07-01T10:55:23.787Z,99519
2014-07-01T10:55:39.820Z,99513
2014-07-01T10:55:55.914Z,99525
2014-07-01T10:56:12.039Z,99519
2014-07-01T10:56:29.414Z,99525
2014-07-01T10:56:45.478Z,99525
2014-07-01T10:57:02.228Z,99513
2014-07-01T10:57:19.025Z,99519
2014-07-01T10:57:35.103Z,99519
2014-07-01T10:57:51.090Z,99511
2014-07-01T10:58:07.168Z,99516
2014-07-01T10:58:23.277Z,99519
2014-07-01T10:58:39.324Z,99519
2014-07-01T10:58:55.467Z,99513
2014-07-01T10:59:12.326Z,99519